| time (UTC) | temp F | wind direction | speed knots | gust knots | rain 1hr in | rain 24hr in | rain mn in | humidity % | barometer mb |
| 20260509162052 | 53 | 292 | 0.9 | 0.9 | 0.00 | 0.00 | 0.00 | 48 | 989.8 |
| 20260509161551 | 53 | 324 | 0.9 | 0.9 | 0.00 | 0.00 | 0.00 | 48 | 989.7 |
| 20260509161051 | 53 | 308 | 1.7 | 1.7 | 0.00 | 0.00 | 0.00 | 48 | 989.7 |
| 20260509160553 | 53 | 238 | 0.9 | 0.9 | 0.00 | 0.00 | 0.00 | 48 | 989.7 |
| 20260509160053 | 54 | 250 | 0.9 | 0.9 | 0.00 | 0.00 | 0.00 | 48 | 989.7 |
| 20260509155553 | 53 | 226 | 1.7 | 1.7 | 0.00 | 0.00 | 0.00 | 50 | 989.7 |
| 20260509155052 | 53 | 143 | 0.9 | 0.9 | 0.00 | 0.00 | 0.00 | 49 | 989.7 |
| 20260509154552 | 53 | 270 | 1.7 | 1.7 | 0.00 | 0.00 | 0.00 | 49 | 989.7 |
| 20260509154052 | 53 | 282 | 0.9 | 0.9 | 0.00 | 0.00 | 0.00 | 48 | 989.7 |
| 20260509153552 | 53 | 22 | 0.0 | 0.0 | 0.00 | 0.00 | 0.00 | 49 | 989.7 |
| 20260509153051 | 53 | 259 | 0.9 | 0.9 | 0.00 | 0.00 | 0.00 | 49 | 989.7 |
| 20260509152551 | 53 | 238 | 0.9 | 0.9 | 0.00 | 0.00 | 0.00 | 49 | 989.6 |
| 20260509152053 | 54 | 354 | 0.0 | 0.0 | 0.00 | 0.00 | 0.00 | 48 | 989.6 |
| 20260509151553 | 54 | 192 | 1.7 | 1.7 | 0.00 | 0.00 | 0.00 | 48 | 989.6 |
| 20260509151053 | 54 | 180 | 0.0 | 0.0 | 0.00 | 0.00 | 0.00 | 47 | 989.6 |
| 20260509150552 | 54 | 270 | 0.0 | 0.0 | 0.00 | 0.00 | 0.00 | 46 | 989.6 |
| 20260509150052 | 55 | 191 | 0.0 | 0.0 | 0.00 | 0.00 | 0.00 | 46 | 989.4 |
| 20260509145552 | 55 | 234 | 1.7 | 1.7 | 0.00 | 0.00 | 0.00 | 45 | 989.4 |
| 20260509145052 | 55 | 248 | 0.9 | 0.9 | 0.00 | 0.00 | 0.00 | 44 | 989.3 |
| 20260509144551 | 55 | 190 | 0.9 | 0.9 | 0.00 | 0.00 | 0.00 | 44 | 989.3 |
| 20260509144051 | 55 | 121 | 1.7 | 1.7 | 0.00 | 0.00 | 0.00 | 44 | 989.3 |
| 20260509143553 | 56 | 112 | 1.7 | 1.7 | 0.00 | 0.00 | 0.00 | 44 | 989.1 |
| 20260509143053 | 56 | 79 | 2.6 | 2.6 | 0.00 | 0.00 | 0.00 | 43 | 989.1 |
| 20260509142553 | 57 | 356 | 1.7 | 1.7 | 0.00 | 0.00 | 0.00 | 43 | 988.9 |
| 20260509142051 | 56 | 79 | 1.7 | 4.3 | 0.00 | 0.00 | 0.00 | 43 | 988.9 |
| 20260509141551 | 57 | 112 | 1.7 | 2.6 | 0.00 | 0.00 | 0.00 | 43 | 988.9 |
| 20260509141053 | 57 | 131 | 1.7 | 1.7 | 0.00 | 0.00 | 0.00 | 42 | 988.8 |
| 20260509140553 | 58 | 101 | 0.9 | 1.7 | 0.00 | 0.00 | 0.00 | 41 | 988.8 |
| 20260509140052 | 58 | 37 | 1.7 | 2.6 | 0.00 | 0.00 | 0.00 | 39 | 988.7 |
| 20260509135552 | 58 | 347 | 2.6 | 4.3 | 0.00 | 0.00 | 0.00 | 39 | 988.7 |
| 20260509135052 | 58 | 68 | 1.7 | 0.9 | 0.00 | 0.00 | 0.00 | 39 | 988.7 |
| 20260509134553 | 59 | 90 | 0.9 | 1.7 | 0.00 | 0.00 | 0.00 | 38 | 988.7 |
| 20260509134053 | 59 | 132 | 2.6 | 4.3 | 0.00 | 0.00 | 0.00 | 37 | 988.7 |
| 20260509133552 | 59 | 0 | 4.3 | 4.3 | 0.00 | 0.00 | 0.00 | 36 | 988.5 |
| 20260509133052 | 60 | 251 | 2.6 | 4.3 | 0.00 | 0.00 | 0.00 | 37 | 988.5 |
| 20260509132552 | 59 | 23 | 1.7 | 2.6 | 0.00 | 0.00 | 0.00 | 38 | 988.4 |
| 20260509132052 | 59 | 324 | 2.6 | 4.3 | 0.00 | 0.00 | 0.00 | 40 | 988.4 |
| 20260509131551 | 59 | 168 | 0.9 | 0.9 | 0.00 | 0.00 | 0.00 | 42 | 988.4 |
| 20260509131051 | 60 | 227 | 2.6 | 2.6 | 0.00 | 0.00 | 0.00 | 45 | 988.4 |
| 20260509130553 | 60 | 143 | 1.7 | 1.7 | 0.00 | 0.00 | 0.00 | 47 | 988.4 |
| 20260509130053 | 60 | 154 | 2.6 | 2.6 | 0.00 | 0.00 | 0.00 | 44 | 988.3 |
| 20260509125552 | 61 | 161 | 1.7 | 1.7 | 0.00 | 0.00 | 0.00 | 39 | 988.3 |
| 20260509125052 | 62 | 195 | 1.7 | 2.6 | 0.00 | 0.00 | 0.00 | 35 | 988.2 |
| 20260509124552 | 62 | 308 | 4.3 | 5.2 | 0.00 | 0.00 | 0.00 | 34 | 988.2 |
| 20260509124052 | 62 | 265 | 2.6 | 6.1 | 0.00 | 0.00 | 0.00 | 34 | 988.2 |
| 20260509123552 | 62 | 282 | 2.6 | 5.2 | 0.00 | 0.00 | 0.00 | 34 | 988.1 |
| 20260509123051 | 62 | 255 | 2.6 | 2.6 | 0.00 | 0.00 | 0.00 | 33 | 988.1 |
| 20260509122551 | 63 | 278 | 2.6 | 4.3 | 0.00 | 0.00 | 0.00 | 33 | 988.0 |
| 20260509122053 | 63 | 285 | 1.7 | 2.6 | 0.00 | 0.00 | 0.00 | 34 | 988.0 |
| 20260509121553 | 63 | 260 | 2.6 | 2.6 | 0.00 | 0.00 | 0.00 | 33 | 988.0 |
| 20260509121053 | 63 | 274 | 2.6 | 2.6 | 0.00 | 0.00 | 0.00 | 34 | 987.8 |
| 20260509120552 | 64 | 325 | 2.6 | 2.6 | 0.00 | 0.00 | 0.00 | 37 | 987.8 |
| 20260509120051 | 64 | 267 | 1.7 | 2.6 | 0.00 | 0.00 | 0.00 | 43 | 987.7 |
| 20260509115553 | 64 | 338 | 2.6 | 4.3 | 0.00 | 0.00 | 0.00 | 46 | 987.7 |
| 20260509115053 | 64 | 288 | 2.6 | 2.6 | 0.00 | 0.00 | 0.00 | 49 | 987.6 |
| 20260509114552 | 64 | 323 | 2.6 | 2.6 | 0.00 | 0.00 | 0.00 | 49 | 987.6 |
| 20260509114052 | 64 | 334 | 1.7 | 2.6 | 0.00 | 0.00 | 0.00 | 50 | 987.6 |
| 20260509113552 | 64 | 288 | 2.6 | 2.6 | 0.00 | 0.00 | 0.00 | 50 | 987.5 |
| 20260509113052 | 64 | 301 | 4.3 | 5.2 | 0.00 | 0.00 | 0.00 | 50 | 987.5 |
| 20260509112552 | 64 | 273 | 2.6 | 5.2 | 0.00 | 0.00 | 0.00 | 50 | 987.2 |
| 20260509112052 | 64 | 258 | 2.6 | 4.3 | 0.00 | 0.00 | 0.00 | 50 | 987.2 |
| 20260509111551 | 64 | 240 | 2.6 | 4.3 | 0.00 | 0.00 | 0.00 | 50 | 987.2 |
| 20260509111051 | 64 | 283 | 1.7 | 1.7 | 0.00 | 0.00 | 0.00 | 49 | 986.8 |
| 20260509110553 | 64 | 280 | 2.6 | 2.6 | 0.00 | 0.00 | 0.00 | 49 | 986.8 |
| 20260509110052 | 64 | 238 | 4.3 | 5.2 | 0.00 | 0.00 | 0.00 | 49 | 986.6 |
| 20260509105552 | 64 | 186 | 4.3 | 4.3 | 0.00 | 0.00 | 0.00 | 49 | 986.6 |
| 20260509105051 | 64 | 284 | 4.3 | 5.2 | 0.00 | 0.00 | 0.00 | 49 | 986.4 |
| 20260509104553 | 64 | 281 | 4.3 | 4.3 | 0.00 | 0.00 | 0.00 | 49 | 986.4 |
| 20260509104053 | 64 | 152 | 0.9 | 1.7 | 0.00 | 0.00 | 0.00 | 49 | 986.4 |
| 20260509103553 | 64 | 304 | 1.7 | 2.6 | 0.00 | 0.00 | 0.00 | 49 | 986.1 |
| 20260509103052 | 65 | 216 | 2.6 | 4.3 | 0.00 | 0.00 | 0.00 | 48 | 986.1 |
| 20260509102552 | 65 | 229 | 2.6 | 2.6 | 0.00 | 0.00 | 0.00 | 48 | 985.9 |
| 20260509102052 | 65 | 231 | 1.7 | 1.7 | 0.00 | 0.00 | 0.00 | 47 | 985.9 |
| 20260509101551 | 65 | 233 | 4.3 | 4.3 | 0.00 | 0.00 | 0.00 | 47 | 985.9 |
| 20260509101051 | 65 | 270 | 4.3 | 4.3 | 0.00 | 0.00 | 0.00 | 47 | 985.6 |
| 20260509100553 | 66 | 250 | 2.6 | 2.6 | 0.00 | 0.00 | 0.00 | 47 | 985.6 |
| 20260509100053 | 66 | 257 | 1.7 | 1.7 | 0.00 | 0.00 | 0.00 | 47 | 985.2 |
| 20260509095553 | 66 | 243 | 2.6 | 5.2 | 0.00 | 0.00 | 0.00 | 46 | 985.2 |
| 20260509095052 | 67 | 291 | 2.6 | 2.6 | 0.00 | 0.00 | 0.00 | 46 | 985.1 |
| 20260509094552 | 67 | 234 | 5.2 | 6.1 | 0.00 | 0.00 | 0.00 | 45 | 985.1 |
| 20260509094052 | 67 | 157 | 2.6 | 5.2 | 0.00 | 0.00 | 0.00 | 45 | 985.1 |
| 20260509093552 | 67 | 225 | 2.6 | 4.3 | 0.00 | 0.00 | 0.00 | 44 | 984.9 |
| 20260509093051 | 68 | 218 | 4.3 | 5.2 | 0.00 | 0.00 | 0.00 | 43 | 984.9 |
| 20260509092551 | 68 | 238 | 4.3 | 4.3 | 0.00 | 0.00 | 0.00 | 42 | 984.6 |
| 20260509092053 | 69 | 215 | 2.6 | 2.6 | 0.00 | 0.00 | 0.00 | 41 | 984.6 |
| 20260509091553 | 69 | 211 | 2.6 | 5.2 | 0.00 | 0.00 | 0.00 | 40 | 984.6 |
| 20260509091053 | 70 | 244 | 2.6 | 5.2 | 0.00 | 0.00 | 0.00 | 39 | 984.3 |
| 20260509090552 | 70 | 202 | 5.2 | 5.2 | 0.00 | 0.00 | 0.00 | 39 | 984.3 |
| 20260509090052 | 70 | 287 | 5.2 | 6.1 | 0.00 | 0.00 | 0.00 | 38 | 983.9 |
| 20260509085552 | 70 | 284 | 6.1 | 7.8 | 0.00 | 0.00 | 0.00 | 37 | 983.9 |
| 20260509085052 | 71 | 265 | 4.3 | 7.0 | 0.00 | 0.00 | 0.00 | 37 | 983.7 |
| 20260509084552 | 71 | 269 | 5.2 | 7.8 | 0.00 | 0.00 | 0.00 | 37 | 983.7 |
| 20260509084052 | 72 | 239 | 6.1 | 8.7 | 0.00 | 0.00 | 0.00 | 35 | 983.7 |
| 20260509083551 | 72 | 236 | 4.3 | 6.1 | 0.00 | 0.00 | 0.00 | 35 | 983.6 |
| 20260509083053 | 73 | 215 | 5.2 | 6.1 | 0.00 | 0.00 | 0.00 | 33 | 983.6 |
| 20260509082553 | 73 | 257 | 6.1 | 6.1 | 0.00 | 0.00 | 0.00 | 33 | 983.2 |
| 20260509082052 | 74 | 225 | 5.2 | 7.8 | 0.00 | 0.00 | 0.00 | 29 | 983.2 |
| 20260509081552 | 75 | 340 | 5.2 | 7.8 | 0.00 | 0.00 | 0.00 | 21 | 983.2 |
| 20260509081052 | 75 | 2 | 6.1 | 5.2 | 0.00 | 0.00 | 0.00 | 21 | 983.0 |
| 20260509080552 | 75 | 36 | 8.7 | 10.4 | 0.00 | 0.00 | 0.00 | 21 | 983.0 |
| 20260509080052 | 75 | 340 | 8.7 | 10.4 | 0.00 | 0.00 | 0.00 | 21 | 983.0 |
| 20260509075551 | 75 | 293 | 6.1 | 6.1 | 0.00 | 0.00 | 0.00 | 21 | 983.0 |
| 20260509075053 | 75 | 307 | 7.8 | 8.7 | 0.00 | 0.00 | 0.00 | 21 | 982.8 |
| 20260509074553 | 75 | 343 | 7.0 | 10.4 | 0.00 | 0.00 | 0.00 | 21 | 982.8 |
| 20260509074053 | 76 | 12 | 8.7 | 11.3 | 0.00 | 0.00 | 0.00 | 21 | 982.8 |
| 20260509073553 | 75 | 331 | 7.8 | 11.3 | 0.00 | 0.00 | 0.00 | 22 | 982.7 |
| 20260509073052 | 75 | 5 | 7.0 | 10.4 | 0.00 | 0.00 | 0.00 | 21 | 982.7 |
| 20260509072552 | 76 | 64 | 7.8 | 10.4 | 0.00 | 0.00 | 0.00 | 21 | 982.6 |
| 20260509072052 | 76 | 332 | 7.0 | 11.3 | 0.00 | 0.00 | 0.00 | 21 | 982.6 |
| 20260509071552 | 76 | 23 | 7.0 | 8.7 | 0.00 | 0.00 | 0.00 | 21 | 982.6 |
| 20260509071052 | 76 | 357 | 7.8 | 8.7 | 0.00 | 0.00 | 0.00 | 21 | 982.2 |
| 20260509070551 | 76 | 335 | 8.7 | 13.0 | 0.00 | 0.00 | 0.00 | 21 | 982.2 |
| 20260509070053 | 76 | 41 | 8.7 | 11.3 | 0.00 | 0.00 | 0.00 | 21 | 982.2 |
| 20260509065553 | 76 | 353 | 7.8 | 12.2 | 0.00 | 0.00 | 0.00 | 21 | 982.2 |
| 20260509065053 | 77 | 31 | 8.7 | 8.7 | 0.00 | 0.00 | 0.00 | 21 | 981.9 |
| 20260509064553 | 77 | 313 | 7.8 | 8.7 | 0.00 | 0.00 | 0.00 | 21 | 981.9 |
| 20260509064052 | 77 | 43 | 7.0 | 10.4 | 0.00 | 0.00 | 0.00 | 22 | 981.9 |
| 20260509063552 | 76 | 324 | 8.7 | 12.2 | 0.00 | 0.00 | 0.00 | 22 | 982.1 |
| 20260509063052 | 76 | 32 | 10.4 | 11.3 | 0.00 | 0.00 | 0.00 | 22 | 982.1 |
| 20260509062552 | 76 | 26 | 8.7 | 13.0 | 0.00 | 0.00 | 0.00 | 22 | 982.0 |
| 20260509062051 | 77 | 334 | 11.3 | 13.0 | 0.00 | 0.00 | 0.00 | 22 | 982.0 |
| 20260509061551 | 77 | 337 | 10.4 | 10.4 | 0.00 | 0.00 | 0.00 | 22 | 982.0 |
| 20260509061053 | 77 | 357 | 8.7 | 10.4 | 0.00 | 0.00 | 0.00 | 21 | 982.0 |
| 20260509060553 | 77 | 358 | 10.4 | 13.0 | 0.00 | 0.00 | 0.00 | 21 | 982.0 |
| 20260509060052 | 77 | 297 | 7.0 | 8.7 | 0.00 | 0.00 | 0.00 | 22 | 981.9 |
| 20260509055551 | 77 | 358 | 7.8 | 10.4 | 0.00 | 0.00 | 0.00 | 21 | 981.9 |
| 20260509055053 | 77 | 310 | 6.1 | 7.0 | 0.00 | 0.00 | 0.00 | 21 | 982.0 |
| 20260509054553 | 77 | 15 | 7.8 | 12.2 | 0.00 | 0.00 | 0.00 | 21 | 982.0 |
| 20260509054053 | 76 | 9 | 7.0 | 8.7 | 0.00 | 0.00 | 0.00 | 21 | 982.0 |
| 20260509053553 | 76 | 356 | 7.0 | 13.0 | 0.00 | 0.00 | 0.00 | 21 | 982.0 |
| 20260509053052 | 76 | 14 | 12.2 | 13.9 | 0.00 | 0.00 | 0.00 | 21 | 982.0 |
| 20260509052552 | 77 | 342 | 7.8 | 11.3 | 0.00 | 0.00 | 0.00 | 21 | 982.2 |
| 20260509052052 | 76 | 358 | 10.4 | 13.0 | 0.00 | 0.00 | 0.00 | 22 | 982.2 |
| 20260509051552 | 76 | 51 | 5.2 | 12.2 | 0.00 | 0.00 | 0.00 | 23 | 982.2 |
| 20260509051052 | 76 | 3 | 13.0 | 17.4 | 0.00 | 0.00 | 0.00 | 22 | 982.0 |
| 20260509050551 | 77 | 315 | 7.0 | 13.0 | 0.00 | 0.00 | 0.00 | 22 | 982.0 |
| 20260509050053 | 76 | 352 | 8.7 | 11.3 | 0.00 | 0.00 | 0.00 | 21 | 982.1 |
| 20260509045553 | 77 | 335 | 13.9 | 14.8 | 0.00 | 0.00 | 0.00 | 22 | 982.1 |
| 20260509045053 | 76 | 352 | 11.3 | 14.8 | 0.00 | 0.00 | 0.00 | 22 | 982.2 |
| 20260509044552 | 76 | 315 | 12.2 | 13.9 | 0.00 | 0.00 | 0.00 | 22 | 982.2 |
| 20260509044052 | 77 | 319 | 12.2 | 15.6 | 0.00 | 0.00 | 0.00 | 22 | 982.2 |
| 20260509043552 | 77 | 24 | 8.7 | 12.2 | 0.00 | 0.00 | 0.00 | 22 | 982.2 |
| 20260509043052 | 76 | 357 | 11.3 | 13.0 | 0.00 | 0.00 | 0.00 | 21 | 982.2 |
| 20260509042551 | 76 | 322 | 11.3 | 12.2 | 0.00 | 0.00 | 0.00 | 21 | 982.3 |
| 20260509042053 | 77 | 338 | 7.8 | 13.0 | 0.00 | 0.00 | 0.00 | 21 | 982.3 |
| 20260509041553 | 76 | 329 | 11.3 | 10.4 | 0.00 | 0.00 | 0.00 | 21 | 982.2 |
| 20260509041053 | 76 | 329 | 13.0 | 13.9 | 0.00 | 0.00 | 0.00 | 21 | 982.2 |
| 20260509040552 | 76 | 324 | 11.3 | 8.7 | 0.00 | 0.00 | 0.00 | 21 | 982.2 |
| 20260509040052 | 76 | 315 | 11.3 | 13.0 | 0.00 | 0.00 | 0.00 | 21 | 982.2 |
| 20260509035552 | 77 | 358 | 10.4 | 15.6 | 0.00 | 0.00 | 0.00 | 22 | 982.2 |
| 20260509035052 | 76 | 351 | 11.3 | 13.0 | 0.00 | 0.00 | 0.00 | 21 | 982.1 |
| 20260509034551 | 78 | 334 | 10.4 | 11.3 | 0.00 | 0.00 | 0.00 | 21 | 982.1 |
| 20260509034051 | 76 | 327 | 10.4 | 11.3 | 0.00 | 0.00 | 0.00 | 22 | 982.1 |
| 20260509033553 | 76 | 319 | 11.3 | 10.4 | 0.00 | 0.00 | 0.00 | 22 | 982.3 |
| 20260509033053 | 76 | 2 | 7.8 | 7.8 | 0.00 | 0.00 | 0.00 | 21 | 982.3 |
| 20260509032553 | 76 | 351 | 8.7 | 10.4 | 0.00 | 0.00 | 0.00 | 22 | 982.2 |
| 20260509032052 | 76 | 36 | 11.3 | 12.2 | 0.00 | 0.00 | 0.00 | 21 | 982.2 |
| 20260509031552 | 75 | 331 | 8.7 | 7.8 | 0.00 | 0.00 | 0.00 | 21 | 982.3 |
| 20260509031052 | 75 | 59 | 11.3 | 13.9 | 0.00 | 0.00 | 0.00 | 22 | 982.4 |
| 20260509030552 | 76 | 14 | 10.4 | 13.9 | 0.00 | 0.00 | 0.00 | 21 | 982.4 |
| 20260509030052 | 76 | 353 | 8.7 | 13.0 | 0.00 | 0.00 | 0.00 | 21 | 982.4 |
| 20260509025552 | 75 | 29 | 10.4 | 12.2 | 0.00 | 0.00 | 0.00 | 21 | 982.4 |
| 20260509025051 | 75 | 346 | 10.4 | 11.3 | 0.00 | 0.00 | 0.00 | 23 | 982.5 |
| 20260509024553 | 75 | 338 | 12.2 | 13.9 | 0.00 | 0.00 | 0.00 | 22 | 982.5 |
| 20260509024053 | 76 | 321 | 11.3 | 14.8 | 0.00 | 0.00 | 0.00 | 22 | 982.5 |
| 20260509023553 | 75 | 349 | 7.0 | 8.7 | 0.00 | 0.00 | 0.00 | 25 | 982.5 |
| 20260509023053 | 74 | 345 | 7.8 | 10.4 | 0.00 | 0.00 | 0.00 | 25 | 982.5 |
| 20260509022552 | 75 | 19 | 10.4 | 12.2 | 0.00 | 0.00 | 0.00 | 24 | 982.7 |
| 20260509022052 | 75 | 358 | 7.0 | 11.3 | 0.00 | 0.00 | 0.00 | 25 | 982.7 |
| 20260509021552 | 74 | 354 | 8.7 | 8.7 | 0.00 | 0.00 | 0.00 | 26 | 982.7 |
| 20260509021052 | 75 | 345 | 11.3 | 13.9 | 0.00 | 0.00 | 0.00 | 25 | 982.8 |
| 20260509020551 | 75 | 31 | 7.0 | 7.0 | 0.00 | 0.00 | 0.00 | 26 | 982.8 |
| 20260509020053 | 75 | 22 | 7.8 | 8.7 | 0.00 | 0.00 | 0.00 | 26 | 983.0 |
| 20260509015553 | 75 | 328 | 7.8 | 8.7 | 0.00 | 0.00 | 0.00 | 27 | 983.0 |
| 20260509015052 | 73 | 4 | 7.0 | 7.8 | 0.00 | 0.00 | 0.00 | 26 | 982.8 |
| 20260509014552 | 74 | 9 | 7.8 | 13.9 | 0.00 | 0.00 | 0.00 | 26 | 982.8 |
| 20260509014052 | 74 | 338 | 8.7 | 11.3 | 0.00 | 0.00 | 0.00 | 27 | 982.8 |
| 20260509013552 | 74 | 31 | 6.1 | 8.7 | 0.00 | 0.00 | 0.00 | 28 | 983.0 |
| 20260509013051 | 73 | 347 | 13.0 | 13.9 | 0.00 | 0.00 | 0.00 | 28 | 983.0 |
| 20260509012551 | 73 | 10 | 11.3 | 18.2 | 0.00 | 0.00 | 0.00 | 28 | 983.0 |
| 20260509012053 | 73 | 307 | 12.2 | 12.2 | 0.00 | 0.00 | 0.00 | 29 | 983.0 |
| 20260509011552 | 73 | 57 | 7.0 | 11.3 | 0.00 | 0.00 | 0.00 | 30 | 982.9 |
| 20260509011052 | 73 | 358 | 10.4 | 10.4 | 0.00 | 0.00 | 0.00 | 29 | 982.9 |
| 20260509010551 | 72 | 330 | 10.4 | 12.2 | 0.00 | 0.00 | 0.00 | 30 | 982.9 |
| 20260509010053 | 72 | 352 | 7.0 | 10.4 | 0.00 | 0.00 | 0.00 | 30 | 982.7 |
| 20260509005552 | 72 | 74 | 7.0 | 8.7 | 0.00 | 0.00 | 0.00 | 30 | 982.7 |
| 20260509005052 | 72 | 327 | 8.7 | 11.3 | 0.00 | 0.00 | 0.00 | 29 | 982.7 |
| 20260509004551 | 71 | 13 | 8.7 | 12.2 | 0.00 | 0.00 | 0.00 | 29 | 982.7 |
| 20260509004051 | 71 | 350 | 12.2 | 13.0 | 0.00 | 0.00 | 0.00 | 30 | 982.7 |
| 20260509003553 | 71 | 0 | 8.7 | 12.2 | 0.00 | 0.00 | 0.00 | 29 | 982.4 |
| 20260509003053 | 71 | 356 | 13.9 | 19.1 | 0.00 | 0.00 | 0.00 | 27 | 982.4 |
| 20260509002553 | 72 | 0 | 11.3 | 14.8 | 0.00 | 0.00 | 0.00 | 28 | 982.3 |
| 20260509002052 | 71 | 350 | 14.8 | 20.0 | 0.00 | 0.00 | 0.00 | 28 | 982.3 |
| 20260509001552 | 71 | 332 | 8.7 | 12.2 | 0.00 | 0.00 | 0.00 | 28 | 982.1 |
| 20260509001052 | 70 | 342 | 11.3 | 15.6 | 0.00 | 0.00 | 0.00 | 28 | 982.1 |
| 20260509000552 | 70 | 358 | 11.3 | 12.2 | 0.00 | 0.00 | 0.00 | 29 | 982.1 |
| 20260509000051 | 70 | 325 | 11.3 | 13.0 | 0.00 | 0.00 | 0.00 | 29 | 982.1 |
| 20260508235553 | 70 | 10 | 13.9 | 13.9 | 0.00 | 0.00 | 0.00 | 29 | 982.1 |
| 20260508235053 | 70 | 338 | 12.2 | 12.2 | 0.00 | 0.00 | 0.00 | 29 | 982.0 |
| 20260508234553 | 70 | 0 | 11.3 | 13.0 | 0.00 | 0.00 | 0.00 | 29 | 982.0 |
| 20260508234053 | 71 | 351 | 11.3 | 14.8 | 0.00 | 0.00 | 0.00 | 29 | 982.0 |
| 20260508233552 | 70 | 127 | 4.3 | 6.1 | 0.00 | 0.00 | 0.00 | 30 | 981.9 |
| 20260508233052 | 69 | 38 | 6.1 | 5.2 | 0.00 | 0.00 | 0.00 | 31 | 981.9 |
| 20260508232552 | 69 | 333 | 6.1 | 6.1 | 0.00 | 0.00 | 0.00 | 31 | 981.9 |
| 20260508232052 | 69 | 27 | 6.1 | 7.8 | 0.00 | 0.00 | 0.00 | 30 | 981.9 |
| 20260508231552 | 68 | 266 | 5.2 | 6.1 | 0.00 | 0.00 | 0.00 | 31 | 981.8 |
| 20260508231051 | 68 | 331 | 4.3 | 5.2 | 0.00 | 0.00 | 0.00 | 31 | 981.8 |
| 20260508230551 | 67 | 312 | 4.3 | 6.1 | 0.00 | 0.00 | 0.00 | 32 | 981.8 |
| 20260508230053 | 67 | 332 | 8.7 | 8.7 | 0.00 | 0.00 | 0.00 | 32 | 981.6 |
| 20260508225553 | 67 | 295 | 7.0 | 7.8 | 0.00 | 0.00 | 0.00 | 32 | 981.6 |
| 20260508225053 | 67 | 1 | 6.1 | 7.0 | 0.00 | 0.00 | 0.00 | 33 | 981.6 |
| 20260508224552 | 67 | 353 | 4.3 | 6.1 | 0.00 | 0.00 | 0.00 | 33 | 981.6 |
| 20260508224052 | 66 | 133 | 2.6 | 4.3 | 0.00 | 0.00 | 0.00 | 34 | 981.6 |
| 20260508223552 | 67 | 110 | 2.6 | 4.3 | 0.00 | 0.00 | 0.00 | 33 | 981.5 |
| 20260508223052 | 67 | 123 | 1.7 | 1.7 | 0.00 | 0.00 | 0.00 | 34 | 981.5 |
| 20260508222552 | 65 | 18 | 0.9 | 1.7 | 0.00 | 0.00 | 0.00 | 37 | 981.3 |
| 20260508222053 | 64 | 287 | 1.7 | 1.7 | 0.00 | 0.00 | 0.00 | 38 | 981.3 |
| 20260508221553 | 64 | 270 | 1.7 | 1.7 | 0.00 | 0.00 | 0.00 | 37 | 981.1 |
| 20260508221053 | 64 | 112 | 0.9 | 0.9 | 0.00 | 0.00 | 0.00 | 37 | 981.1 |
| 20260508220552 | 62 | 231 | 2.6 | 2.6 | 0.00 | 0.00 | 0.00 | 39 | 981.1 |
| 20260508220052 | 61 | 315 | 2.6 | 2.6 | 0.00 | 0.00 | 0.00 | 41 | 981.1 |
| 20260508215552 | 60 | 251 | 1.7 | 2.6 | 0.00 | 0.00 | 0.00 | 41 | 981.1 |
| 20260508215052 | 61 | 270 | 1.7 | 4.3 | 0.00 | 0.00 | 0.00 | 41 | 980.8 |
| 20260508214552 | 61 | 180 | 2.6 | 2.6 | 0.00 | 0.00 | 0.00 | 41 | 980.8 |
| 20260508214051 | 61 | 127 | 1.7 | 1.7 | 0.00 | 0.00 | 0.00 | 40 | 980.8 |
| 20260508213553 | 61 | 158 | 1.7 | 2.6 | 0.00 | 0.00 | 0.00 | 39 | 980.8 |
| 20260508213053 | 62 | 71 | 0.9 | 1.7 | 0.00 | 0.00 | 0.00 | 39 | 980.8 |
| 20260508212553 | 61 | 324 | 0.9 | 0.9 | 0.00 | 0.00 | 0.00 | 40 | 980.6 |
| 20260508212052 | 62 | 125 | 1.7 | 2.6 | 0.00 | 0.00 | 0.00 | 39 | 980.6 |
| 20260508211552 | 61 | 103 | 2.6 | 4.3 | 0.00 | 0.00 | 0.00 | 37 | 980.5 |
| 20260508211052 | 60 | 106 | 0.9 | 1.7 | 0.00 | 0.00 | 0.00 | 38 | 980.5 |
| 20260508210552 | 61 | 99 | 1.7 | 1.7 | 0.00 | 0.00 | 0.00 | 36 | 980.5 |
| 20260508210053 | 60 | 190 | 0.9 | 0.9 | 0.00 | 0.00 | 0.00 | 36 | 980.3 |
| 20260508205553 | 57 | 350 | 0.9 | 2.6 | 0.00 | 0.00 | 0.00 | 40 | 980.3 |
| 20260508205052 | 56 | 337 | 0.9 | 1.7 | 0.00 | 0.00 | 0.00 | 39 | 980.1 |
| 20260508204552 | 55 | 302 | 1.7 | 2.6 | 0.00 | 0.00 | 0.00 | 42 | 980.1 |
| 20260508204052 | 55 | 109 | 1.7 | 1.7 | 0.00 | 0.00 | 0.00 | 42 | 980.1 |
| 20260508203552 | 54 | 123 | 0.9 | 1.7 | 0.00 | 0.00 | 0.00 | 42 | 979.8 |
| 20260508203052 | 54 | 145 | 0.9 | 1.7 | 0.00 | 0.00 | 0.00 | 43 | 979.8 |
| 20260508202551 | 55 | 157 | 2.6 | 2.6 | 0.00 | 0.00 | 0.00 | 42 | 979.8 |
| 20260508202053 | 55 | 167 | 1.7 | 2.6 | 0.00 | 0.00 | 0.00 | 44 | 979.8 |
| 20260508201553 | 55 | 93 | 1.7 | 1.7 | 0.00 | 0.00 | 0.00 | 43 | 979.6 |
| 20260508201053 | 55 | 251 | 0.0 | 0.0 | 0.00 | 0.00 | 0.00 | 40 | 979.6 |
| 20260508200552 | 56 | 84 | 0.9 | 1.7 | 0.00 | 0.00 | 0.00 | 39 | 979.6 |
| 20260508200052 | 56 | 68 | 0.9 | 1.7 | 0.00 | 0.00 | 0.00 | 37 | 979.3 |
| 20260508195552 | 57 | 333 | 1.7 | 2.6 | 0.00 | 0.00 | 0.00 | 37 | 979.3 |
| 20260508195052 | 57 | 43 | 1.7 | 1.7 | 0.00 | 0.00 | 0.00 | 36 | 979.1 |
| 20260508194552 | 57 | 201 | 1.7 | 1.7 | 0.00 | 0.00 | 0.00 | 36 | 979.1 |
| 20260508194051 | 58 | 22 | 2.6 | 5.2 | 0.00 | 0.00 | 0.00 | 35 | 979.1 |
| 20260508193553 | 57 | 143 | 2.6 | 4.3 | 0.00 | 0.00 | 0.00 | 36 | 979.0 |
| 20260508193053 | 57 | 344 | 5.2 | 7.8 | 0.00 | 0.00 | 0.00 | 35 | 979.0 |
| 20260508192553 | 57 | 118 | 4.3 | 5.2 | 0.00 | 0.00 | 0.00 | 36 | 978.9 |
| 20260508192052 | 57 | 109 | 1.7 | 2.6 | 0.00 | 0.00 | 0.00 | 36 | 978.9 |
| 20260508191552 | 57 | 232 | 0.9 | 0.9 | 0.00 | 0.00 | 0.00 | 34 | 978.8 |
| 20260508191052 | 57 | 112 | 2.6 | 4.3 | 0.00 | 0.00 | 0.00 | 35 | 978.8 |
| 20260508190552 | 57 | 85 | 2.6 | 4.3 | 0.00 | 0.00 | 0.00 | 34 | 978.8 |
| 20260508190052 | 57 | 39 | 5.2 | 6.1 | 0.00 | 0.00 | 0.00 | 35 | 978.5 |
| 20260508185551 | 57 | 155 | 4.3 | 4.3 | 0.00 | 0.00 | 0.00 | 34 | 978.5 |
| 20260508185053 | 57 | 136 | 2.6 | 4.3 | 0.00 | 0.00 | 0.00 | 34 | 978.4 |
| 20260508184553 | 57 | 338 | 4.3 | 5.2 | 0.00 | 0.00 | 0.00 | 33 | 978.4 |
| 20260508184053 | 57 | 314 | 1.7 | 5.2 | 0.00 | 0.00 | 0.00 | 34 | 978.4 |
| 20260508183553 | 58 | 16 | 5.2 | 5.2 | 0.00 | 0.00 | 0.00 | 33 | 978.3 |
| 20260508183053 | 58 | 313 | 4.3 | 6.1 | 0.00 | 0.00 | 0.00 | 33 | 978.3 |
| 20260508182552 | 58 | 310 | 7.8 | 11.3 | 0.00 | 0.00 | 0.00 | 32 | 978.1 |
| 20260508182052 | 58 | 308 | 7.0 | 8.7 | 0.00 | 0.00 | 0.00 | 32 | 978.1 |
| 20260508181552 | 58 | 29 | 6.1 | 7.0 | 0.00 | 0.00 | 0.00 | 32 | 978.0 |
| 20260508181052 | 58 | 329 | 5.2 | 8.7 | 0.00 | 0.00 | 0.00 | 31 | 977.9 |
| 20260508180551 | 58 | 44 | 6.1 | 7.0 | 0.00 | 0.00 | 0.00 | 30 | 977.9 |
| 20260508180053 | 59 | 23 | 7.8 | 8.7 | 0.00 | 0.00 | 0.00 | 30 | 977.7 |
| 20260508175553 | 59 | 10 | 7.8 | 12.2 | 0.00 | 0.00 | 0.00 | 30 | 977.7 |
| 20260508175053 | 59 | 12 | 8.7 | 11.3 | 0.00 | 0.00 | 0.00 | 30 | 977.7 |
| 20260508174553 | 59 | 60 | 7.0 | 11.3 | 0.00 | 0.00 | 0.00 | 30 | 977.7 |
| 20260508174053 | 59 | 0 | 6.1 | 11.3 | 0.00 | 0.00 | 0.00 | 30 | 977.7 |
| 20260508173552 | 59 | 4 | 12.2 | 12.2 | 0.00 | 0.00 | 0.00 | 31 | 977.6 |
| 20260508173052 | 59 | 332 | 7.8 | 7.0 | 0.00 | 0.00 | 0.00 | 31 | 977.6 |
| 20260508172552 | 59 | 12 | 7.0 | 12.2 | 0.00 | 0.00 | 0.00 | 32 | 977.3 |
| 20260508172053 | 59 | 46 | 7.8 | 11.3 | 0.00 | 0.00 | 0.00 | 32 | 977.3 |
| 20260508171552 | 59 | 27 | 10.4 | 13.0 | 0.00 | 0.00 | 0.00 | 32 | 977.2 |
| 20260508171052 | 59 | 16 | 7.8 | 12.2 | 0.00 | 0.00 | 0.00 | 33 | 977.2 |
| 20260508170552 | 59 | 22 | 7.8 | 10.4 | 0.00 | 0.00 | 0.00 | 33 | 977.2 |
| 20260508170052 | 59 | 12 | 7.0 | 8.7 | 0.00 | 0.00 | 0.00 | 33 | 977.0 |
| 20260508165552 | 60 | 338 | 7.0 | 11.3 | 0.00 | 0.00 | 0.00 | 33 | 977.0 |
| 20260508165053 | 60 | 320 | 7.0 | 8.7 | 0.00 | 0.00 | 0.00 | 34 | 977.0 |
| 20260508164553 | 60 | 9 | 5.2 | 6.1 | 0.00 | 0.00 | 0.00 | 35 | 977.0 |
| 20260508164053 | 60 | 17 | 7.8 | 8.7 | 0.00 | 0.00 | 0.00 | 36 | 977.0 |
| 20260508163553 | 61 | 16 | 6.1 | 8.7 | 0.00 | 0.00 | 0.00 | 35 | 976.7 |
| 20260508163053 | 61 | 27 | 7.0 | 7.0 | 0.00 | 0.00 | 0.00 | 36 | 976.7 |
| 20260508162552 | 61 | 26 | 6.1 | 7.8 | 0.00 | 0.00 | 0.00 | 36 | 976.4 |